sensor_id;sensor_type;location;lat;lon;timestamp;temperature;humidity
23452;DHT22;11898;51.130;6.780;2022-12-08T03:38:16;6.70;99.90
23452;DHT22;11898;51.130;6.780;2022-12-08T03:40:45;6.60;99.90
23452;DHT22;11898;51.130;6.780;2022-12-08T03:43:15;6.30;99.90
23452;DHT22;11898;51.130;6.780;2022-12-08T03:45:44;6.70;99.90
23452;DHT22;11898;51.130;6.780;2022-12-08T03:48:12;6.60;99.90
23452;DHT22;11898;51.130;6.780;2022-12-08T03:50:41;6.90;99.90
23452;DHT22;11898;51.130;6.780;2022-12-08T03:53:09;6.80;99.90
23452;DHT22;11898;51.130;6.780;2022-12-08T03:55:38;6.70;99.90
23452;DHT22;11898;51.130;6.780;2022-12-08T04:00:35;6.60;99.90
23452;DHT22;11898;51.130;6.780;2022-12-08T04:03:03;6.70;99.90
23452;DHT22;11898;51.130;6.780;2022-12-08T04:05:35;6.70;99.90
23452;DHT22;11898;51.130;6.780;2022-12-08T04:08:04;6.70;99.90
23452;DHT22;11898;51.130;6.780;2022-12-08T04:10:38;6.70;99.90
23452;DHT22;11898;51.130;6.780;2022-12-08T04:13:03;6.80;99.90
23452;DHT22;11898;51.130;6.780;2022-12-08T04:15:31;6.70;99.90
23452;DHT22;11898;51.130;6.780;2022-12-08T04:18:02;6.70;99.90
23452;DHT22;11898;51.130;6.780;2022-12-08T04:22:59;6.60;99.90
23452;DHT22;11898;51.130;6.780;2022-12-08T04:25:28;6.70;99.90
23452;DHT22;11898;51.130;6.780;2022-12-08T04:27:56;6.70;99.90
23452;DHT22;11898;51.130;6.780;2022-12-08T04:30:25;6.60;99.90
23452;DHT22;11898;51.130;6.780;2022-12-08T04:32:54;6.70;99.90
23452;DHT22;11898;51.130;6.780;2022-12-08T04:35:23;6.60;99.90
23452;DHT22;11898;51.130;6.780;2022-12-08T04:37:51;6.70;99.90
23452;DHT22;11898;51.130;6.780;2022-12-08T04:40:20;6.60;99.90
23452;DHT22;11898;51.130;6.780;2022-12-08T04:42:49;6.50;99.90
23452;DHT22;11898;51.130;6.780;2022-12-08T04:45:17;6.40;99.90
23452;DHT22;11898;51.130;6.780;2022-12-08T04:47:46;6.70;99.90
23452;DHT22;11898;51.130;6.780;2022-12-08T04:50:15;6.60;99.90
23452;DHT22;11898;51.130;6.780;2022-12-08T04:52:43;6.30;99.90
23452;DHT22;11898;51.130;6.780;2022-12-08T04:55:12;6.60;99.90
23452;DHT22;11898;51.130;6.780;2022-12-08T04:57:40;6.60;99.90
23452;DHT22;11898;51.130;6.780;2022-12-08T05:00:09;6.50;99.90
23452;DHT22;11898;51.130;6.780;2022-12-08T05:02:38;6.70;99.90
23452;DHT22;11898;51.130;6.780;2022-12-08T05:05:07;6.70;99.90
23452;DHT22;11898;51.130;6.780;2022-12-08T05:07:37;6.60;99.90
23452;DHT22;11898;51.130;6.780;2022-12-08T05:10:06;6.60;99.90
23452;DHT22;11898;51.130;6.780;2022-12-08T05:12:35;6.60;99.90
23452;DHT22;11898;51.130;6.780;2022-12-08T05:17:34;6.50;99.90
23452;DHT22;11898;51.130;6.780;2022-12-08T05:20:03;6.50;99.90
23452;DHT22;11898;51.130;6.780;2022-12-08T05:22:32;6.60;99.90
23452;DHT22;11898;51.130;6.780;2022-12-08T05:25:01;6.50;99.90
23452;DHT22;11898;51.130;6.780;2022-12-08T05:27:30;6.70;99.90
23452;DHT22;11898;51.130;6.780;2022-12-08T05:29:58;6.60;99.90
23452;DHT22;11898;51.130;6.780;2022-12-08T05:32:27;6.60;99.90
23452;DHT22;11898;51.130;6.780;2022-12-08T05:34:55;6.50;99.90
23452;DHT22;11898;51.130;6.780;2022-12-08T05:39:52;6.60;99.90
23452;DHT22;11898;51.130;6.780;2022-12-08T05:42:21;6.60;99.90
23452;DHT22;11898;51.130;6.780;2022-12-08T05:44:51;6.60;99.90
23452;DHT22;11898;51.130;6.780;2022-12-08T05:47:20;6.50;99.90
23452;DHT22;11898;51.130;6.780;2022-12-08T05:49:48;6.70;99.90
23452;DHT22;11898;51.130;6.780;2022-12-08T05:52:17;6.50;99.90
23452;DHT22;11898;51.130;6.780;2022-12-08T05:54:45;6.80;99.90
23452;DHT22;11898;51.130;6.780;2022-12-08T05:57:17;6.50;99.90
23452;DHT22;11898;51.130;6.780;2022-12-08T05:59:45;6.70;99.90
23452;DHT22;11898;51.130;6.780;2022-12-08T06:02:14;6.30;99.90
23452;DHT22;11898;51.130;6.780;2022-12-08T06:04:42;6.70;99.90
23452;DHT22;11898;51.130;6.780;2022-12-08T06:07:11;6.60;99.90
23452;DHT22;11898;51.130;6.780;2022-12-08T06:09:41;6.60;99.90
23452;DHT22;11898;51.130;6.780;2022-12-08T06:12:10;6.60;99.90
23452;DHT22;11898;51.130;6.780;2022-12-08T06:14:39;6.60;99.90
23452;DHT22;11898;51.130;6.780;2022-12-08T06:17:07;6.60;99.90
23452;DHT22;11898;51.130;6.780;2022-12-08T06:19:36;7.00;99.90
23452;DHT22;11898;51.130;6.780;2022-12-08T06:22:05;6.60;99.90
23452;DHT22;11898;51.130;6.780;2022-12-08T06:24:33;6.50;99.90
23452;DHT22;11898;51.130;6.780;2022-12-08T06:27:02;6.50;99.90
23452;DHT22;11898;51.130;6.780;2022-12-08T06:29:30;6.50;99.90
23452;DHT22;11898;51.130;6.780;2022-12-08T06:31:59;6.50;99.90
23452;DHT22;11898;51.130;6.780;2022-12-08T06:34:28;6.50;99.90
23452;DHT22;11898;51.130;6.780;2022-12-08T06:36:56;6.50;99.90
23452;DHT22;11898;51.130;6.780;2022-12-08T06:39:29;6.50;99.90
23452;DHT22;11898;51.130;6.780;2022-12-08T06:41:59;6.40;99.90
23452;DHT22;11898;51.130;6.780;2022-12-08T06:44:46;6.40;99.90
23452;DHT22;11898;51.130;6.780;2022-12-08T06:47:15;6.40;99.90
23452;DHT22;11898;51.130;6.780;2022-12-08T06:49:45;6.80;99.90
23452;DHT22;11898;51.130;6.780;2022-12-08T06:52:14;6.40;99.90
23452;DHT22;11898;51.130;6.780;2022-12-08T06:54:42;6.30;99.90
23452;DHT22;11898;51.130;6.780;2022-12-08T06:57:11;6.30;99.90
23452;DHT22;11898;51.130;6.780;2022-12-08T06:59:40;6.30;99.90
23452;DHT22;11898;51.130;6.780;2022-12-08T07:04:51;6.30;99.90
23452;DHT22;11898;51.130;6.780;2022-12-08T07:09:50;6.40;99.90
23452;DHT22;11898;51.130;6.780;2022-12-08T07:12:19;6.30;99.90
23452;DHT22;11898;51.130;6.780;2022-12-08T07:14:48;6.30;99.90
23452;DHT22;11898;51.130;6.780;2022-12-08T07:17:16;6.30;99.90
23452;DHT22;11898;51.130;6.780;2022-12-08T07:19:45;6.50;99.90
23452;DHT22;11898;51.130;6.780;2022-12-08T07:24:42;6.30;99.90
23452;DHT22;11898;51.130;6.780;2022-12-08T07:27:12;8.30;99.90
23452;DHT22;11898;51.130;6.780;2022-12-08T07:29:41;6.20;99.90
23452;DHT22;11898;51.130;6.780;2022-12-08T07:32:22;6.20;99.90
23452;DHT22;11898;51.130;6.780;2022-12-08T07:37:48;6.30;99.90
23452;DHT22;11898;51.130;6.780;2022-12-08T07:40:17;5.80;99.90
23452;DHT22;11898;51.130;6.780;2022-12-08T07:42:47;6.10;99.90
23452;DHT22;11898;51.130;6.780;2022-12-08T07:45:16;6.20;99.90
23452;DHT22;11898;51.130;6.780;2022-12-08T07:47:47;6.20;99.90
23452;DHT22;11898;51.130;6.780;2022-12-08T07:50:22;6.00;99.90
23452;DHT22;11898;51.130;6.780;2022-12-08T07:52:51;6.20;99.90
23452;DHT22;11898;51.130;6.780;2022-12-08T07:55:22;6.10;99.90
23452;DHT22;11898;51.130;6.780;2022-12-08T07:57:52;6.10;99.90
23452;DHT22;11898;51.130;6.780;2022-12-08T08:00:21;6.20;99.90
23452;DHT22;11898;51.130;6.780;2022-12-08T08:02:49;6.10;99.90
23452;DHT22;11898;51.130;6.780;2022-12-08T08:05:23;6.10;99.90
23452;DHT22;11898;51.130;6.780;2022-12-08T08:07:53;6.10;99.90
23452;DHT22;11898;51.130;6.780;2022-12-08T08:12:50;6.10;99.90
23452;DHT22;11898;51.130;6.780;2022-12-08T08:15:19;6.20;99.90
23452;DHT22;11898;51.130;6.780;2022-12-08T08:20:41;6.00;99.90
23452;DHT22;11898;51.130;6.780;2022-12-08T08:23:11;6.10;99.90
23452;DHT22;11898;51.130;6.780;2022-12-08T08:25:40;6.00;99.90
23452;DHT22;11898;51.130;6.780;2022-12-08T08:28:08;6.10;99.90
23452;DHT22;11898;51.130;6.780;2022-12-08T08:30:40;6.20;99.90
23452;DHT22;11898;51.130;6.780;2022-12-08T08:33:09;6.10;99.90
23452;DHT22;11898;51.130;6.780;2022-12-08T08:35:39;6.60;99.90
23452;DHT22;11898;51.130;6.780;2022-12-08T08:38:10;6.20;99.90
23452;DHT22;11898;51.130;6.780;2022-12-08T08:40:40;6.30;99.90
23452;DHT22;11898;51.130;6.780;2022-12-08T08:43:09;6.30;99.90
23452;DHT22;11898;51.130;6.780;2022-12-08T08:45:39;6.30;99.90
23452;DHT22;11898;51.130;6.780;2022-12-08T08:48:07;6.10;99.90
23452;DHT22;11898;51.130;6.780;2022-12-08T09:27:43;7.50;99.90
23452;DHT22;11898;51.130;6.780;2022-12-08T09:30:12;7.80;99.90
23452;DHT22;11898;51.130;6.780;2022-12-08T09:32:41;7.90;99.90
23452;DHT22;11898;51.130;6.780;2022-12-08T09:35:09;8.00;99.90
23452;DHT22;11898;51.130;6.780;2022-12-08T09:37:38;7.40;99.90
23452;DHT22;11898;51.130;6.780;2022-12-08T09:40:07;7.90;99.90
23452;DHT22;11898;51.130;6.780;2022-12-08T09:42:46;7.90;99.90
23452;DHT22;11898;51.130;6.780;2022-12-08T09:45:15;7.80;99.90
23452;DHT22;11898;51.130;6.780;2022-12-08T09:53:34;7.70;99.90
23452;DHT22;11898;51.130;6.780;2022-12-08T09:56:12;7.70;99.90
23452;DHT22;11898;51.130;6.780;2022-12-08T09:58:56;7.80;99.90
23452;DHT22;11898;51.130;6.780;2022-12-08T10:01:30;7.90;99.90
23452;DHT22;11898;51.130;6.780;2022-12-08T12:25:18;8.50;99.90
23452;DHT22;11898;51.130;6.780;2022-12-08T12:27:47;9.20;99.90
23452;DHT22;11898;51.130;6.780;2022-12-08T12:30:24;9.30;99.90
23452;DHT22;11898;51.130;6.780;2022-12-08T12:35:32;9.60;99.90
23452;DHT22;11898;51.130;6.780;2022-12-08T12:38:08;9.60;99.90
23452;DHT22;11898;51.130;6.780;2022-12-08T12:40:38;9.50;99.90
23452;DHT22;11898;51.130;6.780;2022-12-08T12:43:11;9.40;99.90
23452;DHT22;11898;51.130;6.780;2022-12-08T12:45:40;9.30;99.90
23452;DHT22;11898;51.130;6.780;2022-12-08T12:48:22;9.20;99.90
23452;DHT22;11898;51.130;6.780;2022-12-08T12:50:51;9.20;99.90
23452;DHT22;11898;51.130;6.780;2022-12-08T12:55:58;9.10;99.90
23452;DHT22;11898;51.130;6.780;2022-12-08T13:03:48;8.80;99.90
23452;DHT22;11898;51.130;6.780;2022-12-08T13:06:20;8.80;99.90
23452;DHT22;11898;51.130;6.780;2022-12-08T13:08:52;8.60;99.90
23452;DHT22;11898;51.130;6.780;2022-12-08T13:11:23;8.40;99.90
23452;DHT22;11898;51.130;6.780;2022-12-08T13:13:57;8.60;99.90
23452;DHT22;11898;51.130;6.780;2022-12-08T13:16:34;8.60;99.90
23452;DHT22;11898;51.130;6.780;2022-12-08T13:19:02;8.60;99.90
23452;DHT22;11898;51.130;6.780;2022-12-08T13:21:35;8.50;99.90
23452;DHT22;11898;51.130;6.780;2022-12-08T13:24:13;8.50;99.90
23452;DHT22;11898;51.130;6.780;2022-12-08T13:29:34;8.50;99.90
23452;DHT22;11898;51.130;6.780;2022-12-08T13:34:53;8.30;99.90
23452;DHT22;11898;51.130;6.780;2022-12-08T13:39:57;8.40;99.90
23452;DHT22;11898;51.130;6.780;2022-12-08T13:42:41;8.50;99.90
23452;DHT22;11898;51.130;6.780;2022-12-08T13:50:38;8.40;99.90
23452;DHT22;11898;51.130;6.780;2022-12-08T13:53:15;8.50;99.90
23452;DHT22;11898;51.130;6.780;2022-12-08T13:56:05;8.50;99.90
23452;DHT22;11898;51.130;6.780;2022-12-08T13:58:37;8.50;99.90
23452;DHT22;11898;51.130;6.780;2022-12-08T14:01:12;8.60;99.90
23452;DHT22;11898;51.130;6.780;2022-12-08T14:03:52;8.70;99.90
23452;DHT22;11898;51.130;6.780;2022-12-08T14:06:35;8.60;99.90
23452;DHT22;11898;51.130;6.780;2022-12-08T14:09:16;8.70;99.90
23452;DHT22;11898;51.130;6.780;2022-12-08T14:11:50;8.40;99.90
23452;DHT22;11898;51.130;6.780;2022-12-08T14:17:14;8.60;99.90
23452;DHT22;11898;51.130;6.780;2022-12-08T14:22:37;8.30;99.90
23452;DHT22;11898;51.130;6.780;2022-12-08T14:25:10;8.50;99.90
23452;DHT22;11898;51.130;6.780;2022-12-08T14:27:40;8.50;99.90
23452;DHT22;11898;51.130;6.780;2022-12-08T14:32:48;8.50;99.90
23452;DHT22;11898;51.130;6.780;2022-12-08T14:38:00;8.40;99.90
23452;DHT22;11898;51.130;6.780;2022-12-08T14:40:32;8.30;99.90
23452;DHT22;11898;51.130;6.780;2022-12-08T14:51:29;8.10;99.90
23452;DHT22;11898;51.130;6.780;2022-12-08T14:54:14;8.00;99.90
23452;DHT22;11898;51.130;6.780;2022-12-08T14:56:53;8.00;99.90
23452;DHT22;11898;51.130;6.780;2022-12-08T14:59:30;7.90;99.90
23452;DHT22;11898;51.130;6.780;2022-12-08T15:05:09;7.80;99.90
23452;DHT22;11898;51.130;6.780;2022-12-08T15:07:44;7.50;99.90
23452;DHT22;11898;51.130;6.780;2022-12-08T15:10:19;7.40;99.90
23452;DHT22;11898;51.130;6.780;2022-12-08T15:13:41;7.40;99.90
23452;DHT22;11898;51.130;6.780;2022-12-08T15:18:38;6.90;99.90
23452;DHT22;11898;51.130;6.780;2022-12-08T15:21:09;6.90;99.90
23452;DHT22;11898;51.130;6.780;2022-12-08T15:23:44;6.90;99.90
23452;DHT22;11898;51.130;6.780;2022-12-08T15:26:22;6.90;99.90
23452;DHT22;11898;51.130;6.780;2022-12-08T15:28:51;6.80;99.90
23452;DHT22;11898;51.130;6.780;2022-12-08T15:31:21;6.80;99.90
23452;DHT22;11898;51.130;6.780;2022-12-08T15:33:49;6.80;99.90
23452;DHT22;11898;51.130;6.780;2022-12-08T15:36:18;6.70;99.90
23452;DHT22;11898;51.130;6.780;2022-12-08T15:38:47;6.30;99.90
23452;DHT22;11898;51.130;6.780;2022-12-08T15:41:15;6.60;99.90
23452;DHT22;11898;51.130;6.780;2022-12-08T15:43:44;6.80;99.90
23452;DHT22;11898;51.130;6.780;2022-12-08T15:48:41;6.50;99.90
23452;DHT22;11898;51.130;6.780;2022-12-08T15:51:09;6.40;99.90
23452;DHT22;11898;51.130;6.780;2022-12-08T15:53:40;6.10;99.90
23452;DHT22;11898;51.130;6.780;2022-12-08T15:56:10;6.50;99.90
23452;DHT22;11898;51.130;6.780;2022-12-08T15:58:41;6.40;99.90
23452;DHT22;11898;51.130;6.780;2022-12-08T16:01:11;6.30;99.90
23452;DHT22;11898;51.130;6.780;2022-12-08T16:03:40;6.50;99.90
23452;DHT22;11898;51.130;6.780;2022-12-08T16:06:21;6.60;99.90
23452;DHT22;11898;51.130;6.780;2022-12-08T16:08:51;6.90;99.90
23452;DHT22;11898;51.130;6.780;2022-12-08T16:11:21;6.00;99.90
23452;DHT22;11898;51.130;6.780;2022-12-08T16:14:09;6.40;99.90
23452;DHT22;11898;51.130;6.780;2022-12-08T16:16:39;6.10;99.90
23452;DHT22;11898;51.130;6.780;2022-12-08T16:19:12;6.40;99.90
23452;DHT22;11898;51.130;6.780;2022-12-08T16:21:41;6.60;99.90
23452;DHT22;11898;51.130;6.780;2022-12-08T16:24:11;6.50;99.90
23452;DHT22;11898;51.130;6.780;2022-12-08T16:26:40;6.50;99.90
23452;DHT22;11898;51.130;6.780;2022-12-08T16:29:16;6.70;99.90
23452;DHT22;11898;51.130;6.780;2022-12-08T16:31:45;6.70;99.90
23452;DHT22;11898;51.130;6.780;2022-12-08T16:34:14;6.50;99.90
23452;DHT22;11898;51.130;6.780;2022-12-08T16:36:43;6.60;99.90
23452;DHT22;11898;51.130;6.780;2022-12-08T16:39:13;6.60;99.90
23452;DHT22;11898;51.130;6.780;2022-12-08T16:41:42;6.70;99.90
23452;DHT22;11898;51.130;6.780;2022-12-08T16:44:28;6.50;99.90
23452;DHT22;11898;51.130;6.780;2022-12-08T16:46:57;6.60;99.90
23452;DHT22;11898;51.130;6.780;2022-12-08T16:49:26;6.00;99.90
23452;DHT22;11898;51.130;6.780;2022-12-08T16:51:55;6.50;99.90
23452;DHT22;11898;51.130;6.780;2022-12-08T16:54:24;6.50;99.90
23452;DHT22;11898;51.130;6.780;2022-12-08T17:03:41;6.10;99.90
23452;DHT22;11898;51.130;6.780;2022-12-08T17:06:17;6.10;99.90
23452;DHT22;11898;51.130;6.780;2022-12-08T17:08:47;6.10;99.90
23452;DHT22;11898;51.130;6.780;2022-12-08T17:11:23;6.20;99.90
23452;DHT22;11898;51.130;6.780;2022-12-08T17:13:54;7.80;99.90
23452;DHT22;11898;51.130;6.780;2022-12-08T17:16:22;6.10;99.90
23452;DHT22;11898;51.130;6.780;2022-12-08T17:18:51;6.00;99.90
23452;DHT22;11898;51.130;6.780;2022-12-08T17:21:20;6.10;99.90
23452;DHT22;11898;51.130;6.780;2022-12-08T17:23:48;6.00;99.90
23452;DHT22;11898;51.130;6.780;2022-12-08T17:26:17;6.20;99.90
23452;DHT22;11898;51.130;6.780;2022-12-08T17:28:46;6.00;99.90
23452;DHT22;11898;51.130;6.780;2022-12-08T17:33:45;6.10;99.90
23452;DHT22;11898;51.130;6.780;2022-12-08T17:36:15;6.00;99.90
23452;DHT22;11898;51.130;6.780;2022-12-08T17:38:47;6.00;99.90
23452;DHT22;11898;51.130;6.780;2022-12-08T17:41:16;6.00;99.90
23452;DHT22;11898;51.130;6.780;2022-12-08T17:43:45;5.90;99.90
23452;DHT22;11898;51.130;6.780;2022-12-08T17:46:19;6.00;99.90
23452;DHT22;11898;51.130;6.780;2022-12-08T17:48:48;6.00;99.90
23452;DHT22;11898;51.130;6.780;2022-12-08T17:51:17;6.00;99.90
23452;DHT22;11898;51.130;6.780;2022-12-08T17:53:46;6.00;99.90
23452;DHT22;11898;51.130;6.780;2022-12-08T17:56:20;5.80;99.90
23452;DHT22;11898;51.130;6.780;2022-12-08T17:58:48;5.90;99.90
23452;DHT22;11898;51.130;6.780;2022-12-08T18:01:19;5.90;99.90
23452;DHT22;11898;51.130;6.780;2022-12-08T18:03:47;6.00;99.90
23452;DHT22;11898;51.130;6.780;2022-12-08T18:06:16;5.60;99.90
23452;DHT22;11898;51.130;6.780;2022-12-08T18:08:45;5.90;99.90
23452;DHT22;11898;51.130;6.780;2022-12-08T18:11:16;5.90;99.90
23452;DHT22;11898;51.130;6.780;2022-12-08T18:13:46;5.90;99.90
23452;DHT22;11898;51.130;6.780;2022-12-08T18:16:18;6.00;99.90
23452;DHT22;11898;51.130;6.780;2022-12-08T18:18:47;6.00;99.90
23452;DHT22;11898;51.130;6.780;2022-12-08T18:24:17;6.10;99.90
23452;DHT22;11898;51.130;6.780;2022-12-08T18:26:47;5.80;99.90
23452;DHT22;11898;51.130;6.780;2022-12-08T18:29:16;6.20;99.90
23452;DHT22;11898;51.130;6.780;2022-12-08T18:31:44;5.80;99.90
23452;DHT22;11898;51.130;6.780;2022-12-08T18:34:13;5.80;99.90
23452;DHT22;11898;51.130;6.780;2022-12-08T18:36:42;5.80;99.90
23452;DHT22;11898;51.130;6.780;2022-12-08T18:39:22;5.90;99.90
23452;DHT22;11898;51.130;6.780;2022-12-08T18:41:52;5.40;99.90
23452;DHT22;11898;51.130;6.780;2022-12-08T18:44:21;5.70;99.90
23452;DHT22;11898;51.130;6.780;2022-12-08T18:46:50;6.00;99.90
23452;DHT22;11898;51.130;6.780;2022-12-08T18:49:19;5.90;99.90
23452;DHT22;11898;51.130;6.780;2022-12-08T18:51:47;5.80;99.90
23452;DHT22;11898;51.130;6.780;2022-12-08T18:54:16;5.90;99.90
23452;DHT22;11898;51.130;6.780;2022-12-08T18:56:46;5.80;99.90
23452;DHT22;11898;51.130;6.780;2022-12-08T18:59:15;6.00;99.90
23452;DHT22;11898;51.130;6.780;2022-12-08T19:01:48;5.90;99.90
23452;DHT22;11898;51.130;6.780;2022-12-08T19:04:25;5.90;99.90
23452;DHT22;11898;51.130;6.780;2022-12-08T19:07:03;5.80;99.90
23452;DHT22;11898;51.130;6.780;2022-12-08T19:09:44;5.80;99.90
23452;DHT22;11898;51.130;6.780;2022-12-08T19:12:17;5.90;99.90
23452;DHT22;11898;51.130;6.780;2022-12-08T19:15:08;5.90;99.90
23452;DHT22;11898;51.130;6.780;2022-12-08T19:17:38;5.80;99.90
23452;DHT22;11898;51.130;6.780;2022-12-08T19:20:11;5.80;99.90
23452;DHT22;11898;51.130;6.780;2022-12-08T19:22:43;5.70;99.90
23452;DHT22;11898;51.130;6.780;2022-12-08T19:28:19;5.70;99.90
23452;DHT22;11898;51.130;6.780;2022-12-08T19:31:14;5.50;99.90
23452;DHT22;11898;51.130;6.780;2022-12-08T19:33:43;5.70;99.90
23452;DHT22;11898;51.130;6.780;2022-12-08T19:36:18;5.70;99.90
23452;DHT22;11898;51.130;6.780;2022-12-08T19:39:12;5.70;99.90
23452;DHT22;11898;51.130;6.780;2022-12-08T19:41:57;5.70;99.90
23452;DHT22;11898;51.130;6.780;2022-12-08T19:45:07;5.80;99.90
23452;DHT22;11898;51.130;6.780;2022-12-08T19:51:18;5.10;99.90
23452;DHT22;11898;51.130;6.780;2022-12-08T19:57:45;4.60;99.90
